Time;durP1;ratioP1;P1;durP2;ratioP2;P2;SDS_P1;SDS_P2;PMS_P1;PMS_P2;Temp;Humidity;BMP_temperature;BMP_pressure;BME280_temperature;BME280_humidity;BME280_pressure;Samples;Min_cycle;Max_cycle;Signal;HPM_P1;HPM_P2
2023/07/04 00:01:01;;;;;;;12.40;2.72;;;11.30;99.90;;;;;;5080553;28;20048;-59
2023/07/04 00:03:28;;;;;;;13.13;2.28;;;11.30;99.90;;;;;;5080012;28;20048;-59
2023/07/04 00:05:55;;;;;;;12.63;1.98;;;11.40;99.90;;;;;;5079335;28;20044;-59
2023/07/04 00:08:28;;;;;;;9.70;1.80;;;11.60;99.90;;;;;;5080161;28;20515;-59
2023/07/04 00:10:57;;;;;;;10.63;1.95;;;11.00;99.90;;;;;;5078031;28;20044;-59
2023/07/04 00:13:23;;;;;;;7.53;1.70;;;12.40;99.90;;;;;;5080179;28;20054;-59
2023/07/04 00:15:51;;;;;;;10.65;2.03;;;11.00;99.90;;;;;;5080116;28;20074;-58
2023/07/04 00:18:21;;;;;;;8.13;1.67;;;11.80;99.90;;;;;;5078403;28;20056;-60
2023/07/04 00:20:54;;;;;;;9.60;1.90;;;12.30;99.90;;;;;;5080382;28;20044;-59
2023/07/04 00:23:29;;;;;;;11.70;1.90;;;12.70;99.90;;;;;;5078544;28;20062;-58
2023/07/04 00:25:55;;;;;;;10.52;1.92;;;12.50;99.90;;;;;;5078903;28;20048;-59
2023/07/04 00:28:23;;;;;;;9.18;2.13;;;11.60;99.90;;;;;;5076668;28;20284;-58
2023/07/04 00:30:52;;;;;;;7.78;1.98;;;12.30;99.90;;;;;;5068525;28;20044;-58
2023/07/04 00:33:18;;;;;;;9.95;2.00;;;12.70;99.90;;;;;;5076680;28;20037;-58
2023/07/04 00:35:45;;;;;;;6.15;1.70;;;11.80;99.90;;;;;;5058750;28;20167;-59
2023/07/04 00:38:12;;;;;;;11.27;2.00;;;12.40;99.90;;;;;;5059362;28;20071;-58
2023/07/04 00:40:38;;;;;;;8.57;1.85;;;11.30;99.90;;;;;;5058588;28;20036;-59
2023/07/04 00:43:05;;;;;;;7.53;1.65;;;11.50;99.90;;;;;;5060087;28;20071;-58
2023/07/04 00:45:43;;;;;;;9.55;2.05;;;12.70;99.90;;;;;;5059118;28;20041;-58
2023/07/04 00:48:13;;;;;;;8.90;2.00;;;12.20;99.90;;;;;;5059092;28;20052;-58
2023/07/04 00:50:45;;;;;;;10.30;1.85;;;11.80;99.90;;;;;;5059667;28;20075;-59
2023/07/04 00:53:14;;;;;;;8.80;1.90;;;12.70;99.90;;;;;;5059071;28;20040;-59
2023/07/04 00:55:48;;;;;;;9.57;2.03;;;11.50;99.90;;;;;;5079715;28;20045;-60
2023/07/04 00:58:15;;;;;;;9.07;1.88;;;12.70;99.90;;;;;;5078593;28;20066;-59
2023/07/04 01:00:42;;;;;;;9.25;1.90;;;11.50;99.90;;;;;;5079020;28;20040;-59
2023/07/04 01:03:14;;;;;;;10.32;2.00;;;11.10;99.90;;;;;;5078876;28;20052;-59
2023/07/04 01:06:04;;;;;;;7.43;2.08;;;11.40;99.90;;;;;;5078238;28;20051;-59
2023/07/04 01:08:44;;;;;;;9.30;2.13;;;12.30;99.90;;;;;;5078835;28;20213;-59
2023/07/04 01:11:19;;;;;;;8.88;1.90;;;11.40;99.90;;;;;;5078392;28;20047;-59
2023/07/04 01:13:45;;;;;;;10.55;2.22;;;12.50;99.90;;;;;;5078848;28;20036;-59
2023/07/04 01:16:17;;;;;;;6.38;1.95;;;12.50;99.90;;;;;;5079087;28;20045;-59
2023/07/04 01:18:46;;;;;;;9.63;2.72;;;12.50;99.90;;;;;;5077993;28;20934;-59
2023/07/04 01:21:14;;;;;;;9.20;2.22;;;12.40;99.90;;;;;;5077893;28;20033;-59
2023/07/04 01:24:01;;;;;;;8.93;2.15;;;11.70;99.90;;;;;;5077424;28;21163;-59
2023/07/04 01:26:31;;;;;;;13.05;2.40;;;12.60;99.90;;;;;;5078605;28;20150;-58
2023/07/04 01:28:59;;;;;;;7.95;2.00;;;11.60;99.90;;;;;;5078718;28;20060;-58
2023/07/04 01:31:27;;;;;;;6.82;2.13;;;11.40;99.90;;;;;;5077955;28;20462;-57
2023/07/04 01:33:53;;;;;;;10.55;2.33;;;12.00;99.90;;;;;;5077391;28;20056;-58
2023/07/04 01:36:25;;;;;;;7.85;3.15;;;11.70;99.90;;;;;;5077208;28;20037;-58
2023/07/04 01:38:52;;;;;;;8.88;1.95;;;11.60;99.90;;;;;;5078766;28;20037;-58
2023/07/04 01:41:18;;;;;;;7.13;2.10;;;12.40;99.90;;;;;;5077985;28;20079;-58
2023/07/04 01:43:50;;;;;;;8.98;1.90;;;11.50;99.90;;;;;;5078101;28;20049;-58
2023/07/04 01:46:16;;;;;;;7.97;2.13;;;12.40;99.90;;;;;;5078533;28;20063;-57
2023/07/04 01:48:42;;;;;;;8.10;1.85;;;12.50;99.90;;;;;;5077395;28;20039;-58
2023/07/04 01:51:08;;;;;;;8.88;2.25;;;12.10;99.90;;;;;;5078742;28;20068;-58
2023/07/04 01:53:33;;;;;;;9.27;2.40;;;12.50;99.90;;;;;;5077357;28;20036;-58
2023/07/04 01:55:59;;;;;;;8.98;2.28;;;12.20;99.90;;;;;;5078443;28;20119;-58
2023/07/04 01:58:25;;;;;;;7.47;1.98;;;11.70;99.90;;;;;;5077802;28;20067;-58
2023/07/04 02:00:50;;;;;;;10.38;2.38;;;12.30;99.90;;;;;;5077911;28;20083;-58
2023/07/04 02:03:16;;;;;;;7.95;2.17;;;11.60;99.90;;;;;;5078133;28;20070;-58
2023/07/04 02:05:42;;;;;;;8.05;2.92;;;11.20;99.90;;;;;;5077318;28;20044;-58
2023/07/04 02:08:08;;;;;;;8.98;2.40;;;12.00;99.90;;;;;;5077998;28;20090;-57
2023/07/04 02:10:34;;;;;;;7.05;2.25;;;10.90;99.90;;;;;;5076593;28;20063;-58
2023/07/04 02:12:59;;;;;;;9.13;3.10;;;12.00;99.90;;;;;;5078175;28;20036;-58
2023/07/04 02:15:25;;;;;;;6.55;2.03;;;11.30;99.90;;;;;;5077403;28;20051;-58
2023/07/04 02:17:51;;;;;;;7.68;2.40;;;10.90;99.90;;;;;;5077542;28;20033;-58
2023/07/04 02:20:17;;;;;;;8.23;2.75;;;12.00;99.90;;;;;;5074592;28;20090;-58
2023/07/04 02:22:43;;;;;;;7.60;2.20;;;11.80;99.90;;;;;;5064287;28;20523;-58
2023/07/04 02:25:10;;;;;;;9.80;2.40;;;12.20;99.90;;;;;;5060890;28;20120;-58
2023/07/04 02:27:36;;;;;;;6.95;2.28;;;12.10;99.90;;;;;;5056685;28;20052;-58
2023/07/04 02:30:03;;;;;;;7.88;2.17;;;11.20;99.90;;;;;;5057932;28;20041;-58
2023/07/04 02:32:29;;;;;;;7.82;2.50;;;11.30;99.90;;;;;;5056880;28;20041;-58
2023/07/04 02:34:54;;;;;;;8.40;2.28;;;11.50;99.90;;;;;;5057595;28;20060;-58
2023/07/04 02:37:20;;;;;;;7.18;2.25;;;11.30;99.90;;;;;;5056113;28;20460;-58
2023/07/04 02:39:46;;;;;;;9.68;2.25;;;11.60;99.90;;;;;;5057063;28;20408;-58
2023/07/04 02:42:12;;;;;;;8.43;2.50;;;12.00;99.90;;;;;;5057979;28;20049;-58
2023/07/04 02:44:37;;;;;;;8.85;2.58;;;11.30;99.90;;;;;;5056542;28;20048;-58
2023/07/04 02:47:04;;;;;;;7.72;2.55;;;12.00;99.90;;;;;;5058001;28;20544;-58
2023/07/04 02:49:29;;;;;;;16.95;3.80;;;11.30;99.90;;;;;;5056894;28;20052;-58
2023/07/04 02:51:55;;;;;;;8.07;2.50;;;11.30;99.90;;;;;;5057567;28;20044;-58
2023/07/04 02:54:21;;;;;;;11.00;2.80;;;12.00;99.90;;;;;;5068311;28;20051;-58
2023/07/04 02:56:46;;;;;;;6.57;2.70;;;11.40;99.90;;;;;;5080889;28;20438;-59
2023/07/04 02:59:12;;;;;;;7.45;2.20;;;12.20;99.90;;;;;;5081766;28;20071;-58
2023/07/04 03:01:38;;;;;;;9.25;2.75;;;12.10;99.90;;;;;;5080152;28;20052;-58
2023/07/04 03:04:03;;;;;;;9.75;2.80;;;11.50;99.90;;;;;;5081846;28;20062;-58
2023/07/04 03:06:29;;;;;;;8.38;2.70;;;11.70;99.90;;;;;;5079768;28;20056;-58
2023/07/04 03:08:56;;;;;;;8.65;2.53;;;11.90;99.90;;;;;;5081386;28;20879;-58
2023/07/04 03:11:22;;;;;;;8.73;2.40;;;12.40;99.90;;;;;;5080745;28;20045;-58
2023/07/04 03:13:50;;;;;;;9.05;2.28;;;12.30;99.90;;;;;;5081022;28;20105;-58
2023/07/04 03:16:15;;;;;;;9.02;2.10;;;12.20;99.90;;;;;;5081002;28;20045;-58
2023/07/04 03:18:41;;;;;;;7.32;2.30;;;11.50;99.90;;;;;;5080181;28;20051;-58
2023/07/04 03:21:07;;;;;;;6.80;2.30;;;11.70;99.90;;;;;;5081703;28;20045;-58
2023/07/04 03:23:32;;;;;;;10.30;3.47;;;11.60;99.90;;;;;;5079810;28;20484;-58
2023/07/04 03:25:58;;;;;;;7.25;2.13;;;11.80;99.90;;;;;;5081069;28;20044;-58
2023/07/04 03:28:24;;;;;;;7.18;1.95;;;11.50;99.90;;;;;;5080686;28;20083;-58
2023/07/04 03:30:49;;;;;;;7.65;2.25;;;11.70;99.90;;;;;;5080500;28;20036;-58
2023/07/04 03:33:15;;;;;;;6.65;1.83;;;12.30;99.90;;;;;;5081014;28;20086;-58
2023/07/04 03:35:41;;;;;;;6.35;2.72;;;11.80;99.90;;;;;;5079875;28;20052;-58
2023/07/04 03:38:06;;;;;;;8.20;1.90;;;12.40;99.90;;;;;;5080815;28;20040;-58
2023/07/04 03:40:32;;;;;;;6.88;2.10;;;12.10;99.90;;;;;;5079465;28;20051;-58
2023/07/04 03:42:58;;;;;;;8.13;2.03;;;12.20;99.90;;;;;;5081030;28;20399;-58
2023/07/04 03:45:23;;;;;;;6.10;1.73;;;12.20;99.90;;;;;;5079520;28;20152;-58
2023/07/04 03:47:49;;;;;;;7.88;1.85;;;12.30;99.90;;;;;;5080553;28;20049;-58
2023/07/04 03:50:15;;;;;;;7.45;1.70;;;12.00;99.90;;;;;;5080701;28;20041;-58
2023/07/04 03:52:41;;;;;;;5.85;1.70;;;11.70;99.90;;;;;;5079839;28;20041;-58
2023/07/04 03:55:07;;;;;;;6.63;1.42;;;11.60;99.90;;;;;;5080730;28;20039;-58
2023/07/04 03:57:32;;;;;;;6.32;1.42;;;11.60;99.90;;;;;;5079479;28;20051;-58
2023/07/04 03:59:58;;;;;;;4.25;1.35;;;11.70;99.90;;;;;;5080797;28;20076;-58
2023/07/04 04:02:24;;;;;;;3.67;1.27;;;11.90;99.90;;;;;;5079427;28;20041;-57
2023/07/04 04:04:50;;;;;;;7.18;1.58;;;12.10;99.90;;;;;;5080230;28;20125;-58
2023/07/04 04:07:16;;;;;;;3.92;1.40;;;11.50;99.90;;;;;;5078335;28;20060;-58
2023/07/04 04:09:42;;;;;;;5.47;1.40;;;11.90;99.90;;;;;;5079621;28;20048;-58
2023/07/04 04:12:09;;;;;;;5.07;1.50;;;12.10;99.90;;;;;;5080334;28;20076;-58
2023/07/04 04:14:36;;;;;;;6.20;1.50;;;11.60;99.90;;;;;;5079036;28;20105;-58
2023/07/04 04:17:03;;;;;;;6.13;1.52;;;12.10;99.90;;;;;;5080547;28;20117;-58
2023/07/04 04:19:28;;;;;;;5.72;1.65;;;12.10;99.90;;;;;;5079341;28;20079;-58
2023/07/04 04:21:55;;;;;;;6.10;1.63;;;12.20;99.90;;;;;;5079932;28;20048;-58
2023/07/04 04:24:22;;;;;;;6.95;1.70;;;11.80;99.90;;;;;;5079889;28;20048;-58
2023/07/04 04:26:47;;;;;;;6.82;1.50;;;11.70;99.90;;;;;;5079499;28;20400;-58
2023/07/04 04:29:17;;;;;;;4.82;1.35;;;11.80;99.90;;;;;;5079811;28;20100;-58
2023/07/04 04:31:45;;;;;;;7.30;1.83;;;11.50;99.90;;;;;;5078818;28;20120;-58
2023/07/04 04:34:11;;;;;;;4.47;1.38;;;11.60;99.90;;;;;;5080265;28;20092;-58
2023/07/04 04:36:37;;;;;;;6.07;1.55;;;12.20;99.90;;;;;;5078561;28;20036;-58
2023/07/04 04:39:04;;;;;;;7.28;1.52;;;12.20;99.90;;;;;;5079614;28;20051;-58
2023/07/04 04:41:30;;;;;;;6.05;1.33;;;11.80;99.90;;;;;;5079637;28;20068;-57
2023/07/04 04:43:58;;;;;;;5.63;1.40;;;12.10;99.90;;;;;;5078936;28;20057;-58
2023/07/04 04:46:23;;;;;;;4.85;1.20;;;12.10;99.90;;;;;;5079717;28;20052;-58
2023/07/04 04:48:52;;;;;;;6.40;1.63;;;12.10;99.90;;;;;;5078498;28;20052;-58
2023/07/04 04:51:22;;;;;;;6.32;1.30;;;11.90;99.90;;;;;;5079991;28;20044;-58
2023/07/04 04:53:48;;;;;;;6.60;1.30;;;12.20;99.90;;;;;;5078580;28;20047;-58
2023/07/04 04:56:14;;;;;;;7.10;1.33;;;11.80;99.90;;;;;;5079175;28;20072;-58
2023/07/04 04:58:43;;;;;;;7.60;1.30;;;11.90;99.90;;;;;;5079454;28;20044;-58
2023/07/04 05:01:22;;;;;;;5.38;1.70;;;12.30;99.90;;;;;;5078711;28;20052;-58
2023/07/04 05:03:54;;;;;;;7.15;1.50;;;11.90;99.90;;;;;;5079386;28;20044;-58
2023/07/04 05:06:25;;;;;;;6.63;1.50;;;11.90;99.90;;;;;;5076155;28;20052;-58
2023/07/04 05:08:51;;;;;;;10.02;1.60;;;12.00;99.90;;;;;;5073363;28;20052;-58
2023/07/04 05:11:17;;;;;;;6.13;1.40;;;12.30;99.90;;;;;;5074947;28;20064;-58
2023/07/04 05:13:45;;;;;;;5.10;1.60;;;12.30;99.90;;;;;;5074874;28;20078;-58
2023/07/04 05:16:13;;;;;;;5.07;1.65;;;12.30;99.90;;;;;;5075250;28;20127;-58
2023/07/04 05:18:40;;;;;;;7.07;1.50;;;12.00;99.90;;;;;;5073271;28;20862;-58
2023/07/04 05:21:11;;;;;;;4.85;1.58;;;12.50;99.90;;;;;;5075060;28;20626;-57
2023/07/04 05:23:39;;;;;;;5.80;1.80;;;12.20;99.90;;;;;;5073995;28;20105;-58
2023/07/04 05:26:25;;;;;;;4.43;1.75;;;12.20;99.90;;;;;;5074832;28;20063;-58
2023/07/04 05:28:53;;;;;;;6.57;1.70;;;12.40;99.90;;;;;;5075161;28;20412;-57
2023/07/04 05:31:23;;;;;;;7.50;2.45;;;12.20;99.90;;;;;;5073555;28;20037;-58
2023/07/04 05:33:48;;;;;;;5.93;1.85;;;12.30;99.90;;;;;;5073120;28;20037;-58
2023/07/04 05:36:16;;;;;;;9.20;2.45;;;12.40;99.90;;;;;;5072981;28;20055;-58
2023/07/04 05:38:42;;;;;;;6.55;2.10;;;12.70;99.90;;;;;;5074263;28;20083;-58
2023/07/04 05:41:13;;;;;;;6.32;2.20;;;12.90;99.90;;;;;;5073843;28;20029;-58
2023/07/04 05:43:39;;;;;;;6.65;2.20;;;13.10;99.90;;;;;;5073410;28;20036;-58
2023/07/04 05:46:06;;;;;;;6.65;2.10;;;13.10;99.90;;;;;;5074368;28;20059;-58
2023/07/04 05:48:33;;;;;;;6.57;2.17;;;12.90;99.90;;;;;;5074018;28;20099;-58
2023/07/04 05:51:04;;;;;;;6.55;2.03;;;13.10;99.90;;;;;;5075040;28;20389;-58
2023/07/04 05:53:32;;;;;;;7.82;1.75;;;13.00;99.90;;;;;;5073428;28;20044;-58
2023/07/04 05:56:16;;;;;;;9.05;2.65;;;13.20;99.90;;;;;;5074189;28;20048;-58
2023/07/04 05:58:44;;;;;;;6.22;2.03;;;13.30;99.90;;;;;;5073912;28;20135;-59
2023/07/04 06:01:23;;;;;;;6.88;1.90;;;13.30;99.90;;;;;;5073858;28;20442;-58
2023/07/04 06:03:49;;;;;;;9.23;1.98;;;13.30;99.90;;;;;;5074660;28;20056;-58
2023/07/04 06:06:24;;;;;;;9.85;2.50;;;13.40;99.90;;;;;;5073157;28;20055;-58
2023/07/04 06:08:51;;;;;;;7.72;1.92;;;13.50;99.90;;;;;;5073295;28;20060;-58
2023/07/04 06:11:18;;;;;;;5.97;1.75;;;13.60;99.90;;;;;;5065727;28;20096;-58
2023/07/04 06:13:44;;;;;;;7.32;1.75;;;13.70;99.90;;;;;;5068364;28;20049;-58
2023/07/04 06:16:10;;;;;;;7.28;1.92;;;13.90;99.90;;;;;;5054432;28;20554;-58
2023/07/04 06:18:36;;;;;;;8.73;2.00;;;13.80;99.90;;;;;;5056552;28;20124;-58
2023/07/04 06:21:12;;;;;;;5.22;1.65;;;13.90;99.90;;;;;;5068508;28;20551;-58
2023/07/04 06:23:38;;;;;;;5.43;1.52;;;13.90;99.90;;;;;;5053032;28;20049;-58
2023/07/04 06:26:06;;;;;;;6.85;1.88;;;13.90;99.90;;;;;;5063178;28;20055;-58
2023/07/04 06:28:33;;;;;;;7.05;2.03;;;13.90;99.90;;;;;;5073509;28;20056;-58
2023/07/04 06:30:59;;;;;;;6.78;1.42;;;14.00;99.90;;;;;;5073090;28;20041;-58
2023/07/04 06:33:26;;;;;;;4.78;1.40;;;14.20;99.90;;;;;;5065411;28;20053;-58
2023/07/04 06:35:52;;;;;;;8.15;1.67;;;14.30;99.90;;;;;;5066132;28;20290;-58
2023/07/04 06:38:17;;;;;;;7.53;1.67;;;14.50;99.90;;;;;;5053693;28;20049;-58
2023/07/04 06:40:55;;;;;;;7.60;1.50;;;14.60;99.90;;;;;;5052920;28;20076;-58
2023/07/04 06:43:20;;;;;;;7.13;1.45;;;14.50;99.90;;;;;;5053451;28;20095;-58
2023/07/04 06:45:46;;;;;;;7.30;1.70;;;14.60;99.90;;;;;;5055633;28;20049;-58
2023/07/04 06:48:11;;;;;;;8.25;1.65;;;14.70;99.90;;;;;;5073188;28;20074;-57
2023/07/04 06:50:37;;;;;;;10.27;1.67;;;14.70;99.90;;;;;;5073807;28;20487;-55
2023/07/04 06:53:03;;;;;;;6.50;1.90;;;14.70;99.90;;;;;;5072826;28;20052;-58
2023/07/04 06:55:28;;;;;;;6.57;1.90;;;14.70;99.90;;;;;;5073652;28;20492;-58
2023/07/04 06:57:54;;;;;;;6.07;1.30;;;14.80;99.90;;;;;;5072960;28;20036;-58
2023/07/04 07:00:20;;;;;;;4.72;1.42;;;14.90;99.90;;;;;;5073776;28;20048;-58
2023/07/04 07:02:49;;;;;;;6.65;1.70;;;15.10;99.90;;;;;;5073471;28;20108;-58
2023/07/04 07:05:15;;;;;;;6.90;1.20;;;15.10;99.90;;;;;;5071808;28;20037;-58
2023/07/04 07:07:41;;;;;;;8.68;1.35;;;15.30;99.90;;;;;;5073414;28;20299;-58
2023/07/04 07:10:07;;;;;;;7.15;1.48;;;15.30;99.90;;;;;;5072807;28;20147;-58
2023/07/04 07:12:33;;;;;;;7.13;1.55;;;15.30;99.90;;;;;;5074060;28;20047;-58
2023/07/04 07:14:58;;;;;;;7.18;1.50;;;15.40;99.90;;;;;;5072482;28;20045;-57
2023/07/04 07:17:24;;;;;;;5.75;1.45;;;15.60;99.90;;;;;;5073792;28;20036;-58
2023/07/04 07:19:50;;;;;;;5.35;1.48;;;15.60;99.90;;;;;;5073093;28;20058;-59
2023/07/04 07:22:16;;;;;;;7.47;1.35;;;15.60;99.90;;;;;;5072995;28;20045;-58
2023/07/04 07:24:42;;;;;;;6.93;1.70;;;15.70;99.90;;;;;;5073581;28;20074;-58
2023/07/04 07:27:08;;;;;;;6.57;1.60;;;15.80;99.90;;;;;;5072697;28;20040;-59
2023/07/04 07:29:34;;;;;;;4.15;1.00;;;15.80;99.90;;;;;;5073816;28;20040;-58
2023/07/04 07:32:07;;;;;;;6.88;1.33;;;15.90;99.90;;;;;;5069566;28;20056;-59
2023/07/04 07:34:33;;;;;;;4.03;1.30;;;15.90;99.90;;;;;;5062441;28;20056;-58
2023/07/04 07:36:58;;;;;;;6.72;2.35;;;15.90;99.90;;;;;;5060141;28;20041;-58
2023/07/04 07:39:24;;;;;;;4.10;1.15;;;15.90;99.90;;;;;;5052927;28;20275;-57
2023/07/04 07:41:50;;;;;;;6.00;1.40;;;15.90;99.90;;;;;;5056349;28;20037;-58
2023/07/04 07:44:17;;;;;;;4.80;1.30;;;15.80;99.90;;;;;;5055417;28;20053;-58
2023/07/04 07:46:44;;;;;;;6.45;1.50;;;15.80;99.90;;;;;;5057223;28;20075;-58
2023/07/04 07:49:10;;;;;;;8.75;1.50;;;15.90;99.90;;;;;;5055591;28;20487;-58
2023/07/04 07:51:39;;;;;;;4.70;1.10;;;15.90;99.90;;;;;;5060331;28;20066;-58
2023/07/04 07:54:08;;;;;;;6.47;1.38;;;16.00;99.90;;;;;;5064727;28;20048;-58
2023/07/04 07:56:40;;;;;;;8.73;2.17;;;16.10;99.90;;;;;;5061470;28;20037;-58
2023/07/04 07:59:06;;;;;;;5.68;1.48;;;16.20;97.60;;;;;;5068316;28;20134;-57
2023/07/04 08:01:33;;;;;;;4.90;1.25;;;16.20;93.10;;;;;;5063672;28;20053;-58
2023/07/04 08:04:00;;;;;;;6.95;1.33;;;16.20;94.30;;;;;;5056382;28;20061;-58
2023/07/04 08:06:29;;;;;;;5.32;1.63;;;16.10;89.00;;;;;;5054098;28;20536;-58
2023/07/04 08:08:57;;;;;;;5.25;1.20;;;16.10;84.10;;;;;;5061642;28;20052;-58
2023/07/04 08:11:24;;;;;;;6.10;1.27;;;16.20;89.40;;;;;;5063233;28;20072;-57
2023/07/04 08:13:50;;;;;;;4.90;1.50;;;16.30;86.20;;;;;;5063865;28;20645;-58
2023/07/04 08:16:19;;;;;;;5.60;1.45;;;16.40;81.90;;;;;;5067841;28;20037;-58
2023/07/04 08:18:45;;;;;;;9.43;1.50;;;16.40;85.30;;;;;;5068964;28;20053;-58
2023/07/04 08:21:11;;;;;;;6.43;1.50;;;16.50;82.50;;;;;;5065023;28;20045;-58
2023/07/04 08:23:37;;;;;;;7.22;1.65;;;16.40;84.30;;;;;;5071076;28;20056;-58
2023/07/04 08:26:02;;;;;;;8.05;2.20;;;16.30;85.80;;;;;;5072334;28;20072;-58
2023/07/04 08:28:28;;;;;;;15.15;2.40;;;16.20;86.40;;;;;;5060650;28;20041;-58
2023/07/04 08:31:03;;;;;;;9.32;1.88;;;16.30;90.20;;;;;;5062083;28;20043;-58
2023/07/04 08:33:29;;;;;;;5.82;1.38;;;16.50;89.20;;;;;;5060127;28;20039;-59
2023/07/04 08:36:04;;;;;;;7.53;1.35;;;16.90;90.10;;;;;;5060051;28;20578;-58
2023/07/04 08:38:30;;;;;;;6.22;1.98;;;17.00;81.50;;;;;;5064678;28;20045;-57
2023/07/04 08:40:56;;;;;;;4.63;1.60;;;16.90;82.80;;;;;;5064769;28;20053;-57
2023/07/04 08:43:34;;;;;;;9.13;1.60;;;16.70;80.40;;;;;;5067019;28;20052;-57
2023/07/04 08:46:04;;;;;;;7.82;1.60;;;16.60;85.10;;;;;;5066506;28;20045;-58
2023/07/04 08:48:31;;;;;;;8.88;1.50;;;16.60;87.00;;;;;;5065673;28;20032;-58
2023/07/04 08:51:00;;;;;;;9.60;1.85;;;16.90;86.20;;;;;;5062000;28;20048;-58
2023/07/04 08:53:25;;;;;;;11.63;1.85;;;17.10;85.40;;;;;;5059304;28;20094;-55
2023/07/04 08:56:10;;;;;;;6.82;2.15;;;17.20;82.20;;;;;;5064428;28;20539;-58
2023/07/04 08:58:48;;;;;;;9.88;1.80;;;17.30;82.80;;;;;;5066257;28;20116;-58
2023/07/04 09:01:25;;;;;;;6.72;2.00;;;17.40;86.30;;;;;;5062839;28;20049;-58
2023/07/04 09:03:58;;;;;;;9.77;1.90;;;17.30;87.20;;;;;;5066614;28;20135;-58
2023/07/04 09:06:43;;;;;;;8.30;1.85;;;17.30;86.00;;;;;;5069142;28;20044;-58
2023/07/04 09:09:29;;;;;;;11.23;2.10;;;16.80;87.80;;;;;;5064538;28;20598;-57
2023/07/04 09:11:56;;;;;;;10.98;2.38;;;16.60;90.30;;;;;;5064745;28;20049;-57
2023/07/04 09:14:42;;;;;;;7.80;2.00;;;16.50;91.10;;;;;;5063616;28;20570;-57
2023/07/04 09:17:22;;;;;;;13.27;2.65;;;16.40;93.30;;;;;;5069880;28;20103;-58
2023/07/04 09:19:48;;;;;;;13.00;3.38;;;15.90;99.90;;;;;;5067683;28;20049;-59
2023/07/04 09:22:14;;;;;;;9.95;2.50;;;15.70;99.90;;;;;;5077385;28;20096;-59
2023/07/04 09:24:40;;;;;;;11.52;2.30;;;15.50;99.90;;;;;;5079302;28;20429;-59
2023/07/04 09:27:06;;;;;;;9.88;2.40;;;15.50;99.90;;;;;;5077056;28;20090;-59
2023/07/04 09:29:32;;;;;;;11.73;2.70;;;15.60;99.90;;;;;;5078453;28;20552;-58
2023/07/04 09:32:00;;;;;;;8.18;1.88;;;15.70;99.90;;;;;;5073211;28;20044;-58
2023/07/04 09:34:47;;;;;;;10.07;2.15;;;16.30;99.90;;;;;;5067791;28;20047;-58
2023/07/04 09:37:14;;;;;;;13.65;2.45;;;16.70;99.90;;;;;;5067490;28;20051;-57
2023/07/04 09:39:49;;;;;;;9.43;2.00;;;16.50;93.50;;;;;;5065350;28;20037;-58
2023/07/04 09:42:18;;;;;;;9.00;2.40;;;16.40;96.60;;;;;;5058328;28;20127;-58
2023/07/04 09:44:45;;;;;;;8.02;2.42;;;16.30;93.60;;;;;;5057254;28;20048;-58
2023/07/04 09:47:23;;;;;;;8.73;1.98;;;16.60;93.50;;;;;;5058135;28;20064;-58
2023/07/04 09:50:09;;;;;;;8.95;2.15;;;17.00;92.70;;;;;;5058059;28;20472;-58
2023/07/04 09:52:35;;;;;;;6.30;1.83;;;17.50;87.80;;;;;;5057180;28;20047;-58
2023/07/04 09:55:26;;;;;;;7.18;1.40;;;17.50;77.90;;;;;;5072430;28;20100;-57
2023/07/04 09:57:52;;;;;;;8.20;1.47;;;17.40;74.90;;;;;;5077265;28;20084;-58
2023/07/04 10:00:22;;;;;;;5.63;1.30;;;17.10;76.90;;;;;;5077965;28;20052;-58
2023/07/04 10:02:52;;;;;;;7.85;1.73;;;17.10;80.00;;;;;;5076637;28;20480;-58
2023/07/04 10:05:35;;;;;;;7.90;1.95;;;17.10;77.80;;;;;;5076541;28;20040;-58
2023/07/04 10:08:15;;;;;;;10.88;1.70;;;17.20;75.60;;;;;;5074548;28;20057;-55
2023/07/04 10:10:55;;;;;;;6.18;1.40;;;17.40;76.50;;;;;;5063382;28;20528;-58
2023/07/04 10:13:33;;;;;;;7.43;1.42;;;17.60;73.80;;;;;;5068326;28;20090;-58
2023/07/04 10:15:59;;;;;;;8.02;1.45;;;17.80;70.80;;;;;;5062462;28;20127;-57
2023/07/04 10:18:27;;;;;;;9.95;1.67;;;17.90;73.00;;;;;;5064613;28;20040;-58
2023/07/04 10:20:56;;;;;;;6.80;1.50;;;17.70;71.50;;;;;;5062024;28;20040;-58
2023/07/04 10:23:23;;;;;;;8.07;1.60;;;17.70;75.10;;;;;;5062369;28;20041;-58
2023/07/04 10:25:50;;;;;;;7.05;1.30;;;17.50;77.30;;;;;;5064012;28;20036;-58
2023/07/04 10:28:19;;;;;;;8.32;1.60;;;17.10;78.40;;;;;;5063759;28;20048;-58
2023/07/04 10:30:50;;;;;;;8.25;1.83;;;17.20;76.00;;;;;;5062354;28;20127;-59
2023/07/04 10:33:26;;;;;;;10.95;1.95;;;17.20;75.70;;;;;;5062779;28;20072;-58
2023/07/04 10:35:52;;;;;;;13.32;2.67;;;17.20;79.60;;;;;;5060636;28;20048;-58
2023/07/04 10:38:34;;;;;;;9.95;2.55;;;17.50;81.00;;;;;;5065790;28;20493;-58
2023/07/04 10:41:02;;;;;;;9.75;1.90;;;17.60;79.10;;;;;;5060671;28;20044;-58
2023/07/04 10:43:32;;;;;;;12.52;2.20;;;17.40;78.50;;;;;;5061543;28;20123;-58
2023/07/04 10:46:01;;;;;;;10.18;1.80;;;17.30;80.10;;;;;;5063498;28;20124;-58
2023/07/04 10:48:31;;;;;;;8.32;1.70;;;17.40;74.80;;;;;;5073118;28;20056;-58
2023/07/04 10:51:11;;;;;;;7.07;1.63;;;17.30;76.00;;;;;;5070303;28;20041;-57
2023/07/04 10:53:37;;;;;;;6.75;1.55;;;17.40;75.30;;;;;;5064364;28;20045;-58
2023/07/04 10:56:19;;;;;;;7.75;1.75;;;17.80;75.10;;;;;;5063054;28;20041;-58
2023/07/04 10:58:47;;;;;;;7.97;1.75;;;18.00;68.40;;;;;;5064907;28;20090;-58
2023/07/04 11:01:18;;;;;;;7.72;1.58;;;17.60;70.90;;;;;;5061580;28;20052;-57
2023/07/04 11:03:56;;;;;;;8.00;1.65;;;17.70;70.30;;;;;;5068387;28;20052;-58
2023/07/04 11:06:53;;;;;;;9.95;1.58;;;17.60;72.80;;;;;;5058635;28;20139;-58
2023/07/04 11:09:19;;;;;;;7.20;1.60;;;17.40;71.70;;;;;;5051163;28;20045;-58
2023/07/04 11:11:50;;;;;;;8.93;1.73;;;17.20;74.40;;;;;;5059722;28;20091;-57
2023/07/04 11:14:24;;;;;;;6.10;1.45;;;17.10;72.40;;;;;;5064298;28;20040;-58
2023/07/04 11:16:54;;;;;;;6.43;1.48;;;17.20;70.80;;;;;;5071589;28;20043;-58
2023/07/04 11:19:23;;;;;;;7.68;1.90;;;17.30;71.20;;;;;;5066727;28;20076;-59
2023/07/04 11:22:01;;;;;;;12.75;2.05;;;17.30;70.60;;;;;;5064924;28;20044;-57
2023/07/04 11:24:35;;;;;;;9.18;2.10;;;17.20;72.80;;;;;;5065120;28;20796;-58
2023/07/04 11:27:05;;;;;;;6.05;1.40;;;17.20;77.70;;;;;;5064764;28;20041;-58
2023/07/04 11:29:52;;;;;;;10.30;2.03;;;17.30;75.50;;;;;;5064721;28;20504;-57
2023/07/04 11:32:38;;;;;;;9.68;1.90;;;17.70;73.10;;;;;;5066258;28;20040;-57
2023/07/04 11:35:09;;;;;;;7.75;1.65;;;18.20;68.40;;;;;;5069234;28;20045;-58
2023/07/04 11:37:54;;;;;;;13.48;2.15;;;18.20;72.60;;;;;;5072736;28;20434;-57
2023/07/04 11:40:22;;;;;;;8.18;1.55;;;17.80;71.90;;;;;;5063423;28;20055;-60
2023/07/04 11:42:52;;;;;;;7.38;1.50;;;17.70;72.60;;;;;;5060661;28;20045;-58
2023/07/04 11:45:21;;;;;;;7.72;1.50;;;17.30;70.70;;;;;;5060573;28;20206;-57
2023/07/04 11:48:05;;;;;;;6.90;1.38;;;17.30;72.80;;;;;;5060432;28;20528;-57
2023/07/04 11:50:43;;;;;;;9.35;2.28;;;17.80;73.40;;;;;;5060926;28;20045;-58
2023/07/04 11:53:18;;;;;;;7.15;1.65;;;18.30;72.10;;;;;;5059921;28;20052;-58
2023/07/04 11:56:03;;;;;;;8.80;1.88;;;18.20;69.70;;;;;;5080794;28;20459;-58
2023/07/04 11:58:28;;;;;;;8.55;1.67;;;18.10;66.70;;;;;;5080305;28;20051;-58
2023/07/04 12:00:57;;;;;;;6.75;1.88;;;17.90;66.20;;;;;;5080134;28;20040;-58
2023/07/04 12:03:45;;;;;;;7.53;1.70;;;18.00;68.30;;;;;;5080307;28;20044;-58
2023/07/04 12:06:42;;;;;;;8.30;1.58;;;18.10;65.70;;;;;;5079252;28;20048;-58
2023/07/04 12:09:12;;;;;;;6.85;1.48;;;18.10;66.10;;;;;;5079550;28;20051;-57
2023/07/04 12:11:44;;;;;;;10.15;2.13;;;18.20;67.10;;;;;;5080234;28;20032;-58
2023/07/04 12:14:16;;;;;;;10.25;1.67;;;18.40;64.70;;;;;;5079294;28;20498;-58
2023/07/04 12:16:44;;;;;;;;;;;18.30;62.80;;;;;;5081160;28;20093;-57
2023/07/04 12:19:21;;;;;;;8.15;1.52;;;18.20;62.30;;;;;;5079184;28;19985;-57
2023/07/04 12:21:48;;;;;;;7.60;1.55;;;18.50;62.80;;;;;;5080014;28;20052;-58
2023/07/04 12:24:20;;;;;;;6.85;1.70;;;18.60;55.50;;;;;;5079790;28;20056;-54
2023/07/04 12:26:59;;;;;;;6.70;1.55;;;18.30;59.70;;;;;;5078304;28;20037;-57
2023/07/04 12:29:27;;;;;;;8.68;1.45;;;18.30;60.20;;;;;;5080322;28;20037;-58
2023/07/04 12:32:15;;;;;;;9.98;2.55;;;18.60;61.80;;;;;;5078726;28;20048;-58
2023/07/04 12:34:42;;;;;;;6.95;1.52;;;18.70;59.10;;;;;;5069899;28;20118;-58
2023/07/04 12:37:14;;;;;;;7.13;1.40;;;18.40;57.90;;;;;;5067434;28;20122;-57
2023/07/04 12:39:46;;;;;;;7.30;1.50;;;18.60;55.80;;;;;;5065040;28;20032;-58
2023/07/04 12:42:22;;;;;;;8.20;1.77;;;18.40;60.00;;;;;;5069358;28;20480;-57
2023/07/04 12:44:47;;;;;;;7.38;2.00;;;18.50;60.90;;;;;;5061377;28;20088;-57
2023/07/04 12:47:20;;;;;;;9.02;1.60;;;18.70;59.30;;;;;;5065026;28;20459;-58
2023/07/04 12:49:46;;;;;;;6.82;1.58;;;18.70;55.60;;;;;;5069346;28;20048;-58
2023/07/04 12:52:13;;;;;;;7.47;1.70;;;18.80;53.70;;;;;;5069742;28;20045;-58
2023/07/04 12:54:39;;;;;;;9.15;1.60;;;18.30;55.50;;;;;;5068039;28;20075;-58
2023/07/04 12:57:16;;;;;;;7.13;1.40;;;18.60;56.20;;;;;;5068715;28;20055;-58